Time;durP1;ratioP1;P1;durP2;ratioP2;P2;SDS_P1;SDS_P2;PMS_P1;PMS_P2;Temp;Humidity;BMP_temperature;BMP_pressure;BME280_temperature;BME280_humidity;BME280_pressure;Samples;Min_cycle;Max_cycle;Signal;HPM_P1;HPM_P2
2021/12/30 00:00:13;;;;;;;1.50;1.42;;;6.70;99.90;;;;;;5041871;28;20257;-73
2021/12/30 00:02:41;;;;;;;1.90;1.80;;;6.70;99.90;;;;;;5046575;28;20215;-71
2021/12/30 00:05:09;;;;;;;1.50;1.45;;;6.60;99.90;;;;;;5040548;28;20686;-73
2021/12/30 00:07:37;;;;;;;2.22;1.90;;;6.50;99.90;;;;;;5026750;28;20226;-72
2021/12/30 00:10:05;;;;;;;2.05;1.95;;;6.50;99.90;;;;;;5025474;28;20226;-74
2021/12/30 00:12:33;;;;;;;1.95;1.73;;;6.60;99.90;;;;;;5024153;28;20235;-73
2021/12/30 00:15:01;;;;;;;1.85;1.75;;;6.60;99.90;;;;;;5027954;28;20262;-73
2021/12/30 00:17:28;;;;;;;1.95;1.85;;;6.60;99.90;;;;;;5026285;28;20569;-73
2021/12/30 00:19:55;;;;;;;1.75;1.63;;;6.50;99.90;;;;;;5025458;28;20195;-74
2021/12/30 00:22:23;;;;;;;2.00;1.90;;;6.50;99.90;;;;;;5040956;28;20277;-74
2021/12/30 00:24:52;;;;;;;1.40;1.40;;;6.50;99.90;;;;;;5047196;28;20199;-74
2021/12/30 00:27:19;;;;;;;1.55;1.50;;;6.50;99.90;;;;;;5045838;28;20218;-73
2021/12/30 00:29:46;;;;;;;1.80;1.70;;;6.50;99.90;;;;;;5042520;28;20674;-73
2021/12/30 00:32:13;;;;;;;1.90;1.80;;;6.50;99.90;;;;;;5046627;28;20219;-73
2021/12/30 00:34:40;;;;;;;1.92;1.83;;;6.50;99.90;;;;;;5046291;28;20884;-73
2021/12/30 00:37:07;;;;;;;1.83;1.73;;;6.50;99.90;;;;;;5045521;28;20280;-72
2021/12/30 00:39:34;;;;;;;1.75;1.73;;;6.50;99.90;;;;;;5046554;28;20288;-74
2021/12/30 00:42:03;;;;;;;1.92;1.83;;;6.50;99.90;;;;;;5049169;28;20372;-74
2021/12/30 00:44:30;;;;;;;2.00;1.90;;;6.50;99.90;;;;;;5057977;28;20198;-73
2021/12/30 00:46:59;;;;;;;1.73;1.63;;;6.40;99.90;;;;;;5046200;28;20219;-73
2021/12/30 00:49:26;;;;;;;1.67;1.58;;;6.40;99.90;;;;;;5045056;28;20200;-73
2021/12/30 00:51:53;;;;;;;2.38;1.70;;;6.40;99.90;;;;;;5043705;28;20218;-73
2021/12/30 00:54:20;;;;;;;1.95;1.85;;;6.40;99.90;;;;;;5047306;28;20635;-74
2021/12/30 00:56:47;;;;;;;1.40;1.40;;;6.40;99.90;;;;;;5044493;28;20219;-73
2021/12/30 00:59:16;;;;;;;1.88;1.77;;;6.40;99.90;;;;;;5046096;28;20696;-73
2021/12/30 01:01:44;;;;;;;1.90;1.80;;;6.40;99.90;;;;;;5046855;28;20732;-73
2021/12/30 01:04:11;;;;;;;1.70;1.60;;;6.40;99.90;;;;;;5047268;28;20219;-74
2021/12/30 01:06:38;;;;;;;1.73;1.63;;;6.40;99.90;;;;;;5048172;28;20222;-74
2021/12/30 01:09:06;;;;;;;2.15;1.63;;;6.40;99.90;;;;;;5047257;28;20244;-73
2021/12/30 01:11:33;;;;;;;2.20;2.10;;;6.40;99.90;;;;;;5049155;28;20215;-73
2021/12/30 01:14:04;;;;;;;1.98;1.88;;;6.30;99.90;;;;;;5047124;28;20222;-74
2021/12/30 01:16:41;;;;;;;1.60;1.60;;;6.30;99.90;;;;;;5044634;28;20218;-73
2021/12/30 01:19:22;;;;;;;1.90;1.80;;;6.30;99.90;;;;;;5046061;28;20202;-73
2021/12/30 01:21:52;;;;;;;1.77;1.67;;;6.30;99.90;;;;;;5046902;28;20214;-74
2021/12/30 01:24:19;;;;;;;1.73;1.73;;;6.40;99.90;;;;;;5048203;28;20601;-73
2021/12/30 01:26:47;;;;;;;2.05;1.95;;;6.40;99.90;;;;;;5046320;28;20223;-75
2021/12/30 01:29:14;;;;;;;3.22;1.95;;;6.40;99.90;;;;;;5043640;28;20205;-73
2021/12/30 01:31:43;;;;;;;2.25;2.15;;;6.40;99.90;;;;;;5045034;28;20226;-74
2021/12/30 01:34:11;;;;;;;1.77;1.77;;;6.30;99.90;;;;;;5047229;28;20288;-74
2021/12/30 01:36:38;;;;;;;2.03;1.92;;;6.30;99.90;;;;;;5052248;28;20219;-74
2021/12/30 01:39:06;;;;;;;2.03;1.92;;;6.30;99.90;;;;;;5048944;28;20240;-73
2021/12/30 01:41:33;;;;;;;2.22;1.48;;;6.30;99.90;;;;;;5043323;28;20215;-73
2021/12/30 01:44:00;;;;;;;1.55;1.55;;;6.20;99.90;;;;;;5044973;28;20226;-74
2021/12/30 01:46:36;;;;;;;1.95;1.85;;;6.30;99.90;;;;;;5046638;28;20697;-74
2021/12/30 01:49:05;;;;;;;2.00;1.90;;;6.30;99.90;;;;;;5046109;28;20245;-72
2021/12/30 01:51:32;;;;;;;1.40;1.40;;;6.30;99.90;;;;;;5041998;28;20226;-74
2021/12/30 01:54:00;;;;;;;1.63;1.52;;;6.30;99.90;;;;;;5044302;28;20211;-73
2021/12/30 01:56:28;;;;;;;1.73;1.63;;;6.30;99.90;;;;;;5046981;28;20226;-74
2021/12/30 01:58:56;;;;;;;2.00;1.90;;;6.30;99.90;;;;;;5041586;28;20214;-73
2021/12/30 02:01:23;;;;;;;1.65;1.65;;;6.20;99.90;;;;;;5043695;28;20218;-73
2021/12/30 02:03:50;;;;;;;1.83;1.73;;;6.00;99.90;;;;;;5043899;28;20222;-74
2021/12/30 02:06:19;;;;;;;1.67;1.63;;;5.90;99.90;;;;;;5043020;28;20203;-73
2021/12/30 02:08:46;;;;;;;1.70;1.70;;;5.90;99.90;;;;;;5043498;28;20195;-76
2021/12/30 02:11:13;;;;;;;1.50;1.40;;;5.80;99.90;;;;;;5046102;28;20344;-74
2021/12/30 02:13:40;;;;;;;1.75;1.65;;;5.90;99.90;;;;;;5043602;28;20222;-74
2021/12/30 02:16:07;;;;;;;1.90;1.88;;;5.90;99.90;;;;;;5047568;28;20191;-74
2021/12/30 02:18:34;;;;;;;1.60;1.60;;;5.90;99.90;;;;;;5046791;28;20210;-73
2021/12/30 02:21:04;;;;;;;1.75;1.75;;;5.90;99.90;;;;;;5047079;28;20206;-73
2021/12/30 02:23:33;;;;;;;1.88;1.80;;;5.90;99.90;;;;;;5045098;28;20230;-73
2021/12/30 02:26:03;;;;;;;2.25;1.77;;;5.90;99.90;;;;;;5043872;28;20207;-74
2021/12/30 02:28:32;;;;;;;1.70;1.60;;;5.90;99.90;;;;;;5043938;28;20225;-73
2021/12/30 02:31:02;;;;;;;1.95;1.85;;;5.90;99.90;;;;;;5049219;28;20202;-73
2021/12/30 02:33:29;;;;;;;2.20;2.00;;;5.90;99.90;;;;;;5044226;28;20222;-73
2021/12/30 02:35:58;;;;;;;2.13;1.90;;;5.80;99.90;;;;;;5044094;28;20207;-73
2021/12/30 02:38:26;;;;;;;1.63;1.60;;;5.70;99.90;;;;;;5043775;28;21022;-74
2021/12/30 02:40:56;;;;;;;1.55;1.55;;;5.70;99.90;;;;;;5037901;28;20746;-74
2021/12/30 02:43:27;;;;;;;1.40;1.30;;;5.70;99.90;;;;;;5038663;28;20218;-74
2021/12/30 02:45:55;;;;;;;1.60;1.60;;;5.70;99.90;;;;;;5045934;28;20206;-73
2021/12/30 02:48:24;;;;;;;2.13;2.03;;;5.80;99.90;;;;;;5046130;28;20219;-74
2021/12/30 02:50:54;;;;;;;1.77;1.67;;;5.80;99.90;;;;;;5043670;28;20605;-74
2021/12/30 02:53:21;;;;;;;1.60;1.60;;;5.80;99.90;;;;;;5045215;28;20227;-74
2021/12/30 02:55:53;;;;;;;1.90;1.80;;;5.80;99.90;;;;;;5046490;28;20286;-73
2021/12/30 02:58:21;;;;;;;1.95;1.85;;;5.80;99.90;;;;;;5043794;28;20771;-73
2021/12/30 03:00:49;;;;;;;1.90;1.80;;;5.80;99.90;;;;;;5045688;28;20207;-73
2021/12/30 03:03:20;;;;;;;2.00;1.92;;;5.80;99.90;;;;;;5046894;28;20949;-74
2021/12/30 03:05:47;;;;;;;2.17;2.08;;;5.80;99.90;;;;;;5045207;28;20203;-73
2021/12/30 03:08:14;;;;;;;1.88;1.77;;;5.80;99.90;;;;;;5062006;22;20227;-78
2021/12/30 03:10:42;;;;;;;2.03;1.92;;;5.80;99.90;;;;;;5030751;28;20199;-80
2021/12/30 03:13:14;;;;;;;5.88;1.83;;;5.80;99.90;;;;;;5024183;28;20629;-79
2021/12/30 03:15:41;;;;;;;1.80;1.70;;;5.80;99.90;;;;;;5023226;28;20219;-78
2021/12/30 03:18:09;;;;;;;2.20;2.10;;;5.80;99.90;;;;;;5022759;28;20235;-79
2021/12/30 03:20:37;;;;;;;1.90;1.80;;;5.80;99.90;;;;;;5026046;28;20251;-79
2021/12/30 03:23:05;;;;;;;2.00;1.90;;;5.80;99.90;;;;;;5021641;28;20374;-79
2021/12/30 03:25:32;;;;;;;1.95;1.85;;;5.90;99.90;;;;;;5030857;28;20611;-79
2021/12/30 03:28:00;;;;;;;2.03;1.92;;;5.90;99.90;;;;;;5020288;28;20308;-79
2021/12/30 03:30:28;;;;;;;2.13;2.03;;;5.90;99.90;;;;;;5023807;28;20204;-79
2021/12/30 03:32:55;;;;;;;1.95;1.85;;;5.90;99.90;;;;;;5016607;28;20227;-77
2021/12/30 03:35:22;;;;;;;1.85;1.75;;;5.90;99.90;;;;;;5003990;28;20469;-79
2021/12/30 03:37:50;;;;;;;1.92;1.83;;;5.90;99.90;;;;;;5004942;28;20654;-78
2021/12/30 03:40:18;;;;;;;1.90;1.80;;;5.90;99.90;;;;;;5007661;28;20208;-79
2021/12/30 03:42:46;;;;;;;2.10;2.00;;;5.80;99.90;;;;;;5013833;28;20637;-79
2021/12/30 03:45:15;;;;;;;1.88;1.77;;;5.80;99.90;;;;;;5026212;28;20662;-78
2021/12/30 03:47:46;;;;;;;1.90;1.80;;;5.80;99.90;;;;;;5011961;28;20216;-79
2021/12/30 03:50:19;;;;;;;2.22;2.13;;;5.90;99.90;;;;;;5003436;28;20622;-79
2021/12/30 03:52:47;;;;;;;2.10;2.00;;;5.90;99.90;;;;;;5017349;28;20216;-79
2021/12/30 03:55:14;;;;;;;1.83;1.80;;;5.80;99.90;;;;;;5029871;28;20203;-79
2021/12/30 03:57:41;;;;;;;1.77;1.67;;;5.80;99.90;;;;;;5026231;28;20218;-77
2021/12/30 04:00:10;;;;;;;2.15;2.05;;;5.70;99.90;;;;;;5026089;28;20204;-79
2021/12/30 04:02:37;;;;;;;1.80;1.70;;;5.70;99.90;;;;;;5026009;28;20226;-79
2021/12/30 04:05:07;;;;;;;1.90;1.80;;;5.70;99.90;;;;;;5014227;28;20250;-79
2021/12/30 04:07:34;;;;;;;2.30;2.20;;;5.60;99.90;;;;;;5012926;28;20273;-79
2021/12/30 04:10:01;;;;;;;2.30;2.20;;;5.70;99.90;;;;;;5016219;28;20201;-80
2021/12/30 04:12:29;;;;;;;1.83;1.73;;;5.70;99.90;;;;;;5016439;28;20220;-78
2021/12/30 04:14:56;;;;;;;1.42;1.42;;;5.70;99.90;;;;;;5030044;28;20200;-79
2021/12/30 04:17:23;;;;;;;1.70;1.60;;;5.70;99.90;;;;;;5026720;28;20223;-78
2021/12/30 04:19:50;;;;;;;2.13;2.03;;;5.70;99.90;;;;;;5028647;28;20253;-79
2021/12/30 04:22:19;;;;;;;2.33;2.22;;;5.70;99.90;;;;;;5026035;28;20212;-79
2021/12/30 04:24:46;;;;;;;1.92;1.90;;;5.70;99.90;;;;;;5028975;28;20291;-80
2021/12/30 04:27:13;;;;;;;1.80;1.70;;;5.70;99.90;;;;;;5026253;28;20223;-79
2021/12/30 04:29:40;;;;;;;1.80;1.77;;;5.70;99.90;;;;;;5029260;28;20274;-79
2021/12/30 04:32:08;;;;;;;2.00;1.90;;;5.60;99.90;;;;;;5023086;28;20769;-78
2021/12/30 04:34:35;;;;;;;1.95;1.85;;;5.60;99.90;;;;;;5026881;28;20203;-78
2021/12/30 04:37:03;;;;;;;2.00;1.90;;;5.70;99.90;;;;;;5023043;28;20702;-79
2021/12/30 04:39:32;;;;;;;1.70;1.70;;;5.70;99.90;;;;;;5022549;28;20273;-79
2021/12/30 04:42:01;;;;;;;1.88;1.77;;;5.60;99.90;;;;;;5024510;28;20195;-79
2021/12/30 04:44:28;;;;;;;2.08;1.98;;;5.70;99.90;;;;;;5027669;28;20273;-80
2021/12/30 04:46:56;;;;;;;2.05;1.95;;;5.70;99.90;;;;;;5023205;28;20222;-77
2021/12/30 04:49:23;;;;;;;2.10;2.00;;;5.70;99.90;;;;;;5029241;28;20641;-79
2021/12/30 04:51:50;;;;;;;2.20;2.10;;;5.70;99.90;;;;;;5028627;28;20191;-79
2021/12/30 04:54:17;;;;;;;2.20;2.10;;;5.70;99.90;;;;;;5027248;28;20294;-79
2021/12/30 04:56:46;;;;;;;1.90;1.80;;;5.70;99.90;;;;;;5023442;28;20263;-78
2021/12/30 04:59:13;;;;;;;2.22;2.13;;;5.70;99.90;;;;;;5022613;28;20307;-79
2021/12/30 05:01:40;;;;;;;2.03;1.92;;;5.70;99.90;;;;;;5025952;28;20547;-79
2021/12/30 05:04:07;;;;;;;2.15;2.03;;;5.70;99.90;;;;;;5029312;28;20594;-78
2021/12/30 05:06:36;;;;;;;2.17;2.08;;;5.60;99.90;;;;;;5025191;28;20200;-79
2021/12/30 05:09:06;;;;;;;1.98;1.88;;;5.60;99.90;;;;;;5017450;28;20282;-79
2021/12/30 05:11:33;;;;;;;2.00;1.92;;;5.60;99.90;;;;;;5025793;28;20204;-78
2021/12/30 05:14:01;;;;;;;1.95;1.85;;;5.60;99.90;;;;;;5024025;28;20289;-78
2021/12/30 05:16:28;;;;;;;1.88;1.80;;;5.60;99.90;;;;;;5022985;28;20197;-78
2021/12/30 05:18:57;;;;;;;1.90;1.80;;;5.60;99.90;;;;;;5024365;28;20230;-79
2021/12/30 05:21:25;;;;;;;1.88;1.77;;;5.60;99.90;;;;;;5031078;28;20250;-79
2021/12/30 05:23:52;;;;;;;2.47;2.38;;;5.60;99.90;;;;;;5024861;28;20230;-79
2021/12/30 05:26:22;;;;;;;2.15;2.05;;;5.60;99.90;;;;;;5028545;28;20613;-77
2021/12/30 05:28:49;;;;;;;2.20;2.10;;;5.60;99.90;;;;;;5025030;28;20274;-78
2021/12/30 05:31:17;;;;;;;1.85;1.75;;;5.60;99.90;;;;;;5024558;28;20219;-77
2021/12/30 05:33:44;;;;;;;1.65;1.55;;;5.50;99.90;;;;;;5027516;28;20223;-79
2021/12/30 05:36:12;;;;;;;1.88;1.77;;;5.50;99.90;;;;;;5025831;28;20609;-79
2021/12/30 05:38:39;;;;;;;1.90;1.80;;;5.60;99.90;;;;;;5024581;28;20227;-78
2021/12/30 05:41:06;;;;;;;2.20;2.10;;;5.60;99.90;;;;;;5026175;28;20195;-80
2021/12/30 05:43:33;;;;;;;2.10;2.00;;;5.60;99.90;;;;;;5022462;28;20219;-78
2021/12/30 05:46:00;;;;;;;2.15;2.05;;;5.60;99.90;;;;;;5028817;28;20281;-78
2021/12/30 05:48:29;;;;;;;2.10;2.00;;;5.50;99.90;;;;;;5026657;28;20227;-79
2021/12/30 05:50:59;;;;;;;2.20;2.10;;;5.50;99.90;;;;;;5024262;28;20200;-78
2021/12/30 05:53:27;;;;;;;2.53;2.42;;;5.40;99.90;;;;;;5028294;28;20394;-78
2021/12/30 05:55:54;;;;;;;2.17;2.08;;;5.40;99.90;;;;;;5027999;28;20254;-79
2021/12/30 05:58:21;;;;;;;2.50;2.40;;;5.40;99.90;;;;;;5030187;28;20220;-78
2021/12/30 06:00:49;;;;;;;2.05;1.95;;;5.40;99.90;;;;;;5032970;28;20689;-77
2021/12/30 06:03:19;;;;;;;2.15;2.05;;;5.40;99.90;;;;;;5031691;28;20222;-81
2021/12/30 06:05:47;;;;;;;2.90;2.75;;;5.40;99.90;;;;;;5022895;28;20211;-79
2021/12/30 06:08:14;;;;;;;2.90;2.70;;;5.40;99.90;;;;;;5017188;28;20262;-78
2021/12/30 06:10:43;;;;;;;2.30;2.20;;;5.40;99.90;;;;;;5006914;28;20196;-79
2021/12/30 06:13:10;;;;;;;2.60;2.50;;;5.50;99.90;;;;;;5017561;28;20220;-77
2021/12/30 06:15:37;;;;;;;2.35;2.25;;;5.50;99.90;;;;;;5028326;28;20254;-79
2021/12/30 06:18:04;;;;;;;2.17;2.08;;;5.50;99.90;;;;;;5027906;28;20223;-78
2021/12/30 06:20:32;;;;;;;2.10;2.00;;;5.50;99.90;;;;;;5025581;28;20249;-78
2021/12/30 06:23:00;;;;;;;2.53;2.38;;;5.50;99.90;;;;;;5026803;28;20270;-80
2021/12/30 06:25:27;;;;;;;2.60;2.50;;;5.50;99.90;;;;;;5026418;28;20203;-79
2021/12/30 06:27:54;;;;;;;2.25;2.15;;;5.50;99.90;;;;;;5025385;28;20277;-78
2021/12/30 06:30:22;;;;;;;2.25;2.15;;;5.50;99.90;;;;;;5029532;28;20196;-80
2021/12/30 06:32:49;;;;;;;2.17;2.08;;;5.50;99.90;;;;;;5020614;28;20223;-78
2021/12/30 06:35:16;;;;;;;2.33;2.22;;;5.40;99.90;;;;;;5012225;28;20204;-80
2021/12/30 06:37:43;;;;;;;2.75;2.58;;;5.30;99.90;;;;;;5008154;28;20235;-78
2021/12/30 06:40:14;;;;;;;2.50;2.40;;;5.30;99.90;;;;;;5013950;28;20203;-79
2021/12/30 06:42:43;;;;;;;2.97;2.58;;;5.30;99.90;;;;;;5007661;28;20226;-80
2021/12/30 06:45:11;;;;;;;3.05;2.30;;;5.30;99.90;;;;;;5009108;28;20204;-79
2021/12/30 06:47:38;;;;;;;2.40;2.30;;;5.30;99.90;;;;;;5013793;28;20223;-79
2021/12/30 06:50:07;;;;;;;3.47;3.17;;;5.30;99.90;;;;;;5011696;28;20204;-80
2021/12/30 06:52:35;;;;;;;2.47;2.38;;;5.30;99.90;;;;;;5013559;28;20275;-80
2021/12/30 06:55:02;;;;;;;2.30;2.20;;;5.30;99.90;;;;;;5013301;28;20220;-78
2021/12/30 06:57:30;;;;;;;2.45;2.35;;;5.30;99.90;;;;;;5012191;28;20196;-79
2021/12/30 06:59:57;;;;;;;2.53;2.42;;;5.30;99.90;;;;;;5009596;28;20208;-80
2021/12/30 07:02:25;;;;;;;2.83;2.70;;;5.40;99.90;;;;;;5011147;28;20206;-79
2021/12/30 07:04:52;;;;;;;2.58;2.47;;;5.30;99.90;;;;;;5024975;28;20246;-83
2021/12/30 07:07:19;;;;;;;2.35;2.25;;;5.30;99.90;;;;;;5025679;28;20199;-79
2021/12/30 07:09:47;;;;;;;2.42;2.33;;;5.30;99.90;;;;;;5024223;28;20224;-80
2021/12/30 07:12:14;;;;;;;2.28;2.17;;;5.30;99.90;;;;;;5029020;28;20291;-82
2021/12/30 07:14:42;;;;;;;2.50;2.40;;;5.30;99.90;;;;;;5022032;28;20303;-80
2021/12/30 07:17:09;;;;;;;2.78;2.67;;;5.30;99.90;;;;;;5025793;28;20200;-80
2021/12/30 07:19:36;;;;;;;2.55;2.35;;;5.30;99.90;;;;;;5021751;28;20221;-83
2021/12/30 07:22:04;;;;;;;2.40;2.30;;;5.40;99.90;;;;;;5030429;28;20199;-79
2021/12/30 07:24:31;;;;;;;2.45;2.35;;;5.40;99.90;;;;;;5028625;28;20622;-77
2021/12/30 07:26:58;;;;;;;2.80;2.70;;;5.50;99.90;;;;;;5024994;28;20207;-79
2021/12/30 07:29:25;;;;;;;2.35;2.25;;;5.50;99.90;;;;;;5016904;28;20226;-83
2021/12/30 07:31:54;;;;;;;2.92;2.72;;;5.60;99.90;;;;;;5016783;28;20666;-78
2021/12/30 07:34:21;;;;;;;2.67;2.58;;;5.60;99.90;;;;;;5006164;28;20223;-78
2021/12/30 07:36:48;;;;;;;2.60;2.50;;;5.60;99.90;;;;;;5005274;28;20207;-79
2021/12/30 07:39:15;;;;;;;2.50;2.35;;;5.70;99.90;;;;;;5032477;28;20230;-78
2021/12/30 07:41:42;;;;;;;2.75;2.55;;;5.80;99.90;;;;;;5041107;28;20203;-79
2021/12/30 07:44:09;;;;;;;2.40;2.30;;;5.80;99.90;;;;;;5041068;28;20215;-80
2021/12/30 07:46:36;;;;;;;2.90;2.70;;;5.80;99.90;;;;;;5041921;28;20191;-79
2021/12/30 07:49:05;;;;;;;1.98;1.88;;;5.90;99.90;;;;;;5045860;28;20756;-80
2021/12/30 07:51:33;;;;;;;2.22;2.13;;;6.00;99.90;;;;;;5041794;28;20191;-79
2021/12/30 07:54:00;;;;;;;2.10;2.00;;;6.10;99.90;;;;;;5041486;28;20234;-79
2021/12/30 07:56:27;;;;;;;2.67;2.47;;;6.10;99.90;;;;;;5041687;28;20195;-80
2021/12/30 07:58:54;;;;;;;2.42;2.33;;;6.20;99.90;;;;;;5045674;28;20480;-78
2021/12/30 08:01:21;;;;;;;3.03;2.85;;;6.30;99.90;;;;;;5044037;28;20751;-80
2021/12/30 08:03:48;;;;;;;5.47;4.97;;;6.30;99.90;;;;;;5038134;28;20328;-81
2021/12/30 08:06:17;;;;;;;5.00;4.53;;;6.30;99.90;;;;;;5049658;28;20207;-79
2021/12/30 08:08:44;;;;;;;5.63;5.10;;;6.40;99.90;;;;;;5042992;28;20406;-79
2021/12/30 08:11:11;;;;;;;5.43;4.93;;;6.40;99.90;;;;;;5043638;28;20253;-80
2021/12/30 08:13:39;;;;;;;4.95;4.55;;;6.50;99.90;;;;;;5039250;28;20281;-80
2021/12/30 08:16:06;;;;;;;4.53;4.13;;;6.50;99.90;;;;;;5041700;28;20203;-80
2021/12/30 08:18:33;;;;;;;4.50;4.20;;;6.50;99.90;;;;;;5035179;28;20239;-79
2021/12/30 08:21:01;;;;;;;4.80;4.32;;;6.60;99.90;;;;;;5035895;28;20209;-77
2021/12/30 08:23:29;;;;;;;4.55;4.25;;;6.70;99.90;;;;;;5037204;28;20313;-80
2021/12/30 08:25:56;;;;;;;4.35;3.95;;;7.00;99.90;;;;;;5044427;28;20504;-81
2021/12/30 08:28:25;;;;;;;4.43;4.03;;;7.40;99.90;;;;;;5043287;28;20218;-79
2021/12/30 08:30:53;;;;;;;3.60;3.40;;;7.90;99.90;;;;;;5039430;28;20199;-79
2021/12/30 08:33:21;;;;;;;3.65;3.42;;;8.40;99.90;;;;;;5036634;28;20292;-79
2021/12/30 08:35:48;;;;;;;2.85;2.65;;;9.10;99.90;;;;;;5045063;28;20199;-78
2021/12/30 08:38:17;;;;;;;3.10;2.90;;;9.60;99.90;;;;;;5045369;28;20224;-79
2021/12/30 08:40:47;;;;;;;2.78;2.60;;;10.00;99.90;;;;;;5046930;28;20224;-79
2021/12/30 08:43:15;;;;;;;3.30;3.10;;;10.30;99.90;;;;;;5042939;28;20214;-79
2021/12/30 08:45:42;;;;;;;3.00;2.80;;;10.50;99.90;;;;;;5049322;28;20542;-80
2021/12/30 08:48:10;;;;;;;3.00;2.80;;;10.70;99.90;;;;;;5043214;28;20742;-79
2021/12/30 08:50:37;;;;;;;3.03;2.83;;;11.00;99.90;;;;;;5047120;28;20530;-80
2021/12/30 08:53:04;;;;;;;2.90;2.70;;;11.20;99.90;;;;;;5045067;28;20766;-80
2021/12/30 08:55:31;;;;;;;3.38;3.13;;;11.60;99.90;;;;;;5040717;28;20226;-78
2021/12/30 08:58:00;;;;;;;3.42;3.22;;;11.90;99.90;;;;;;5050960;28;20634;-80
2021/12/30 09:00:30;;;;;;;2.92;2.75;;;12.30;99.90;;;;;;5043764;28;20195;-80
2021/12/30 09:03:00;;;;;;;2.63;2.53;;;12.70;99.90;;;;;;5048456;28;20222;-79
2021/12/30 09:05:28;;;;;;;3.08;2.88;;;13.00;99.90;;;;;;5045598;28;20254;-80
2021/12/30 09:07:55;;;;;;;3.10;2.90;;;13.40;99.90;;;;;;5041946;28;20222;-77
2021/12/30 09:10:23;;;;;;;3.00;2.80;;;14.10;99.90;;;;;;5092065;22;20229;-75
2021/12/30 09:12:53;;;;;;;3.00;2.80;;;14.40;99.90;;;;;;5087449;28;20194;-75
2021/12/30 09:15:25;;;;;;;2.75;2.55;;;14.50;99.90;;;;;;5082266;28;20968;-75
2021/12/30 09:17:53;;;;;;;3.42;3.20;;;14.80;99.90;;;;;;5084200;28;20202;-74
2021/12/30 09:20:21;;;;;;;3.05;2.85;;;15.00;99.90;;;;;;5069005;28;20225;-73
2021/12/30 09:22:48;;;;;;;3.53;3.22;;;15.30;99.90;;;;;;5062240;28;20194;-76
2021/12/30 09:25:19;;;;;;;3.20;3.00;;;15.40;99.90;;;;;;5064876;28;20263;-75
2021/12/30 09:27:47;;;;;;;3.75;3.45;;;15.60;99.90;;;;;;5058825;28;20190;-74
2021/12/30 09:30:15;;;;;;;3.63;3.33;;;16.00;99.90;;;;;;5060907;28;20279;-77
2021/12/30 09:32:45;;;;;;;3.03;2.72;;;16.70;99.90;;;;;;5059586;28;20724;-77
2021/12/30 09:35:13;;;;;;;3.00;2.80;;;17.70;99.90;;;;;;5064619;28;20236;-79
2021/12/30 09:37:42;;;;;;;2.70;2.50;;;18.00;99.90;;;;;;5066407;28;20654;-79
2021/12/30 09:40:13;;;;;;;2.30;2.20;;;18.00;99.90;;;;;;5068342;28;20798;-77
2021/12/30 09:42:43;;;;;;;2.40;2.20;;;18.30;99.90;;;;;;5060260;28;20199;-80
2021/12/30 09:45:11;;;;;;;2.25;2.15;;;19.10;99.90;;;;;;5062283;28;20206;-78
2021/12/30 09:47:45;;;;;;;2.75;2.55;;;20.40;99.90;;;;;;5066620;28;20478;-74
2021/12/30 09:50:12;;;;;;;2.22;2.13;;;21.10;99.90;;;;;;5059778;28;20232;-80
2021/12/30 09:52:39;;;;;;;2.08;1.98;;;21.60;99.90;;;;;;5063683;28;20194;-76
2021/12/30 09:55:08;;;;;;;2.78;2.58;;;21.80;99.90;;;;;;5061956;28;20222;-76
2021/12/30 09:57:35;;;;;;;2.80;2.60;;;21.00;99.90;;;;;;5060520;28;20692;-75
2021/12/30 10:00:04;;;;;;;3.55;3.25;;;20.40;99.90;;;;;;5067440;28;20229;-75
2021/12/30 10:02:31;;;;;;;3.60;3.30;;;19.90;99.90;;;;;;5066385;28;20193;-75
2021/12/30 10:05:06;;;;;;;3.97;3.60;;;20.00;99.90;;;;;;5057621;28;20704;-75
2021/12/30 10:07:33;;;;;;;4.32;3.55;;;19.80;99.90;;;;;;5056387;28;20580;-74
2021/12/30 10:10:03;;;;;;;4.28;3.97;;;19.10;99.90;;;;;;5061234;28;20234;-77
2021/12/30 10:12:34;;;;;;;3.58;3.28;;;18.30;99.90;;;;;;5055564;28;20198;-77
2021/12/30 10:15:02;;;;;;;3.40;3.20;;;17.40;99.90;;;;;;5057602;28;20226;-78
2021/12/30 10:17:30;;;;;;;3.25;3.05;;;16.70;99.90;;;;;;5058376;28;20666;-72
2021/12/30 10:20:18;;;;;;;3.30;3.10;;;16.10;99.90;;;;;;5060288;28;20314;-75
2021/12/30 10:22:46;;;;;;;3.17;2.97;;;15.70;99.90;;;;;;5057732;28;20289;-75
2021/12/30 10:25:27;;;;;;;2.65;2.45;;;15.50;99.90;;;;;;5059597;28;20593;-76
2021/12/30 10:27:55;;;;;;;3.15;2.92;;;15.40;99.90;;;;;;5061573;28;20210;-77
2021/12/30 10:30:33;;;;;;;3.30;3.10;;;15.40;99.90;;;;;;5061005;28;20222;-75
2021/12/30 10:33:14;;;;;;;3.95;3.65;;;15.20;99.90;;;;;;5059151;28;20198;-78
2021/12/30 10:35:43;;;;;;;4.47;3.63;;;14.80;99.90;;;;;;5055325;28;20217;-75
2021/12/30 10:38:11;;;;;;;3.80;3.50;;;14.10;99.90;;;;;;5059458;28;20198;-74
2021/12/30 10:40:41;;;;;;;3.90;3.60;;;13.80;99.90;;;;;;5059799;28;20301;-77
2021/12/30 10:43:20;;;;;;;3.78;3.47;;;13.80;99.90;;;;;;5057665;28;20206;-76
2021/12/30 10:46:07;;;;;;;3.47;3.20;;;14.10;99.90;;;;;;5058675;28;20210;-77
2021/12/30 10:48:35;;;;;;;3.50;3.20;;;13.90;99.90;;;;;;5057629;28;20190;-75
2021/12/30 10:51:15;;;;;;;3.75;3.45;;;14.10;99.90;;;;;;5055521;28;20252;-76
2021/12/30 10:53:42;;;;;;;4.25;3.45;;;14.50;99.90;;;;;;5062130;28;20194;-75
2021/12/30 10:56:27;;;;;;;3.85;3.10;;;14.60;99.90;;;;;;5043674;28;20288;-77
2021/12/30 10:59:07;;;;;;;3.65;3.30;;;14.80;99.90;;;;;;5042322;28;20234;-75
2021/12/30 11:01:38;;;;;;;3.17;2.97;;;14.90;99.90;;;;;;5039059;28;20217;-80
2021/12/30 11:04:06;;;;;;;3.30;3.00;;;14.60;99.90;;;;;;5041151;28;20701;-75
2021/12/30 11:06:34;;;;;;;3.47;3.15;;;14.70;99.90;;;;;;5038874;28;20650;-75
2021/12/30 11:09:20;;;;;;;3.25;3.05;;;14.50;99.90;;;;;;5038688;28;20276;-75
2021/12/30 11:11:51;;;;;;;3.08;2.88;;;14.60;99.90;;;;;;5039381;28;20462;-77
2021/12/30 11:14:21;;;;;;;3.60;3.30;;;14.80;99.90;;;;;;5040983;28;20223;-74
2021/12/30 11:17:16;;;;;;;3.67;3.38;;;15.00;99.90;;;;;;5039464;28;20210;-75
2021/12/30 11:19:49;;;;;;;3.10;2.90;;;15.20;99.90;;;;;;5036892;28;20309;-76
2021/12/30 11:22:20;;;;;;;3.38;3.08;;;15.30;99.90;;;;;;5040436;28;20201;-74
2021/12/30 11:24:49;;;;;;;3.42;3.13;;;15.10;99.90;;;;;;5044590;28;20214;-74
2021/12/30 11:27:18;;;;;;;3.78;3.47;;;15.20;99.90;;;;;;5037986;28;20205;-77
2021/12/30 11:29:48;;;;;;;3.22;3.03;;;15.10;99.90;;;;;;5036688;28;20223;-76
2021/12/30 11:32:18;;;;;;;3.65;3.35;;;15.00;99.90;;;;;;5040457;28;20199;-76
2021/12/30 11:34:46;;;;;;;3.60;3.30;;;14.90;99.90;;;;;;5037637;28;20233;-76
2021/12/30 11:37:14;;;;;;;3.47;3.20;;;14.80;99.90;;;;;;5036822;28;20218;-77
2021/12/30 11:39:45;;;;;;;3.53;3.22;;;14.80;99.90;;;;;;5040111;28;20226;-76
2021/12/30 11:42:17;;;;;;;3.40;3.10;;;14.70;99.90;;;;;;5040431;28;20207;-78
2021/12/30 11:44:46;;;;;;;3.22;3.03;;;14.60;99.90;;;;;;5047925;28;20225;-75
2021/12/30 11:47:39;;;;;;;3.17;2.97;;;14.60;99.90;;;;;;5056138;28;20201;-77
2021/12/30 11:50:11;;;;;;;2.90;2.70;;;14.40;99.90;;;;;;5054732;28;20275;-75
2021/12/30 11:53:08;;;;;;;3.30;3.00;;;14.30;99.90;;;;;;5054927;28;20594;-76
2021/12/30 11:56:02;;;;;;;3.20;3.00;;;14.30;99.90;;;;;;5041378;28;20225;-73
2021/12/30 11:58:48;;;;;;;4.10;2.90;;;14.30;99.90;;;;;;5056742;28;20190;-76
2021/12/30 12:01:38;;;;;;;3.03;2.83;;;14.00;99.90;;;;;;5038571;28;20234;-77
2021/12/30 12:04:09;;;;;;;4.00;3.47;;;13.60;99.90;;;;;;5041552;28;20408;-76
2021/12/30 12:06:39;;;;;;;3.33;3.10;;;13.30;99.90;;;;;;5057982;28;20205;-77
2021/12/30 12:09:11;;;;;;;3.40;3.20;;;13.50;99.90;;;;;;5055152;28;20222;-74
2021/12/30 12:11:48;;;;;;;3.50;3.20;;;13.50;99.90;;;;;;5057002;28;20191;-75
2021/12/30 12:14:18;;;;;;;3.53;3.22;;;13.40;99.90;;;;;;5055004;28;20219;-75
2021/12/30 12:16:53;;;;;;;3.83;3.50;;;13.30;99.90;;;;;;5044524;28;20227;-74
2021/12/30 12:19:22;;;;;;;3.55;3.22;;;13.20;99.90;;;;;;5054721;28;20310;-76
2021/12/30 12:21:50;;;;;;;3.70;3.40;;;13.20;99.90;;;;;;5043371;28;20191;-73
2021/12/30 12:24:36;;;;;;;3.47;3.17;;;13.30;99.90;;;;;;5045997;28;20265;-75
2021/12/30 12:27:07;;;;;;;3.40;3.10;;;13.60;99.90;;;;;;5049503;28;20190;-77
2021/12/30 12:29:38;;;;;;;3.30;3.10;;;13.80;99.90;;;;;;5040518;28;20470;-74
2021/12/30 12:32:10;;;;;;;3.55;3.25;;;14.00;99.90;;;;;;5041001;28;20211;-78
2021/12/30 12:34:43;;;;;;;3.53;3.22;;;14.20;99.90;;;;;;5044340;28;20223;-73
2021/12/30 12:37:47;;;;;;;3.00;2.80;;;14.20;99.90;;;;;;5043327;28;20202;-76
2021/12/30 12:40:24;;;;;;;3.03;2.83;;;14.10;99.90;;;;;;5047955;28;20241;-78
2021/12/30 12:43:09;;;;;;;3.58;3.28;;;14.00;99.90;;;;;;5060985;28;20206;-76
2021/12/30 12:45:40;;;;;;;4.05;3.55;;;13.90;99.90;;;;;;5058913;28;20287;-75
2021/12/30 12:48:32;;;;;;;3.40;3.20;;;13.80;99.90;;;;;;5057207;28;20217;-77
2021/12/30 12:51:00;;;;;;;3.17;2.97;;;13.70;99.90;;;;;;5057966;28;20707;-75
2021/12/30 12:54:01;;;;;;;3.40;3.10;;;13.70;99.90;;;;;;5064074;28;20194;-75
2021/12/30 12:56:33;;;;;;;3.35;3.15;;;13.60;99.90;;;;;;5040617;28;20221;-74
2021/12/30 12:59:10;;;;;;;2.97;2.78;;;13.40;99.90;;;;;;5061696;28;20680;-75
2021/12/30 13:01:39;;;;;;;3.20;3.00;;;13.20;99.90;;;;;;5057505;28;20240;-76
2021/12/30 13:04:08;;;;;;;2.85;2.65;;;13.10;99.90;;;;;;5059938;28;20269;-73